Time;durP1;ratioP1;P1;durP2;ratioP2;P2;SDS_P1;SDS_P2;PMS_P1;PMS_P2;Temp;Humidity;BMP_temperature;BMP_pressure;BME280_temperature;BME280_humidity;BME280_pressure;Samples;Min_cycle;Max_cycle;Signal;HPM_P1;HPM_P2
2023/10/02 03:31:40;;;;;;;6.82;4.03;;;11.40;99.90;;;;;;5665696;23;20279;-66
2023/10/02 03:36:49;;;;;;;6.00;3.63;;;11.40;99.90;;;;;;4954251;28;20692;-65
2023/10/02 03:39:23;;;;;;;8.63;4.90;;;11.40;99.90;;;;;;4954779;28;20213;-65
2023/10/02 03:41:55;;;;;;;6.43;4.60;;;11.40;99.90;;;;;;4954275;28;20228;-65
2023/10/02 03:44:22;;;;;;;6.32;4.28;;;11.40;99.90;;;;;;4954291;28;20212;-65
2023/10/02 03:46:51;;;;;;;7.25;4.10;;;11.30;99.90;;;;;;4954375;28;20300;-65
2023/10/02 03:49:19;;;;;;;8.00;4.03;;;11.30;99.90;;;;;;4954528;28;20212;-66
2023/10/02 03:51:46;;;;;;;6.70;4.47;;;11.30;99.90;;;;;;4954397;28;20600;-65
2023/10/02 03:54:20;;;;;;;9.00;4.13;;;11.30;99.90;;;;;;4954364;28;20205;-65
2023/10/02 03:56:49;;;;;;;7.45;4.13;;;11.30;99.90;;;;;;4954261;28;20212;-65
2023/10/02 03:59:17;;;;;;;9.30;5.50;;;11.20;99.90;;;;;;4954328;28;20249;-65
2023/10/02 04:01:47;;;;;;;7.70;3.88;;;11.30;99.90;;;;;;4954118;28;20252;-65
2023/10/02 04:04:21;;;;;;;5.63;3.77;;;11.30;99.90;;;;;;4954088;28;20747;-65
2023/10/02 04:06:50;;;;;;;7.38;4.00;;;11.30;99.90;;;;;;4954089;28;20522;-65
2023/10/02 04:09:21;;;;;;;6.90;4.72;;;11.20;99.90;;;;;;4954132;28;20308;-65
2023/10/02 04:11:50;;;;;;;10.57;4.72;;;11.20;99.90;;;;;;4953972;28;20227;-65
2023/10/02 04:14:18;;;;;;;8.70;4.55;;;11.20;99.90;;;;;;4953893;28;20673;-65
2023/10/02 04:16:49;;;;;;;8.32;4.97;;;11.20;99.90;;;;;;4954006;28;20209;-66
2023/10/02 04:19:23;;;;;;;6.82;4.00;;;11.20;99.90;;;;;;4954001;28;20221;-65
2023/10/02 04:21:52;;;;;;;7.68;4.60;;;11.20;99.90;;;;;;4953847;28;20248;-65
2023/10/02 04:24:24;;;;;;;9.75;4.80;;;11.20;99.90;;;;;;4953670;28;20654;-64
2023/10/02 04:26:54;;;;;;;8.25;4.65;;;11.10;99.90;;;;;;4947176;28;20200;-65
2023/10/02 04:29:28;;;;;;;6.20;4.50;;;11.20;99.90;;;;;;4953734;28;20209;-65
2023/10/02 04:32:14;;;;;;;10.60;4.20;;;11.20;99.90;;;;;;4947567;28;20220;-66
2023/10/02 04:34:50;;;;;;;7.95;4.95;;;11.20;99.90;;;;;;4953524;28;20206;-65
2023/10/02 04:37:19;;;;;;;7.55;4.53;;;11.10;99.90;;;;;;4953773;28;20236;-64
2023/10/02 04:39:54;;;;;;;10.30;4.68;;;11.10;99.90;;;;;;4953642;28;20208;-65
2023/10/02 04:42:22;;;;;;;5.18;4.03;;;11.20;99.90;;;;;;4953446;28;20602;-65
2023/10/02 04:44:56;;;;;;;8.88;4.45;;;11.20;99.90;;;;;;4952792;28;20673;-65
2023/10/02 04:47:26;;;;;;;6.72;3.85;;;11.20;99.90;;;;;;4953613;28;20212;-65
2023/10/02 04:53:04;;;;;;;8.88;4.57;;;11.20;99.90;;;;;;4949463;28;20259;-65
2023/10/02 04:55:32;;;;;;;7.10;4.20;;;11.20;99.90;;;;;;4952860;28;20283;-65
2023/10/02 04:58:04;;;;;;;9.05;6.32;;;11.10;99.90;;;;;;4953305;28;20209;-65
2023/10/02 05:00:34;;;;;;;9.10;4.93;;;11.10;99.90;;;;;;4953096;28;20324;-65
2023/10/02 05:03:21;;;;;;;11.10;5.30;;;11.10;99.90;;;;;;4953148;28;20224;-65
2023/10/02 05:05:49;;;;;;;7.80;4.28;;;11.10;99.90;;;;;;4952850;28;20204;-65
2023/10/02 05:08:20;;;;;;;10.45;4.80;;;11.10;99.90;;;;;;4953186;28;20213;-65
2023/10/02 05:10:49;;;;;;;9.40;5.20;;;11.10;99.90;;;;;;4952632;28;20224;-65
2023/10/02 05:13:44;;;;;;;7.55;4.28;;;11.10;99.90;;;;;;4953111;28;20212;-64
2023/10/02 05:16:11;;;;;;;8.05;4.07;;;11.10;99.90;;;;;;4947417;28;20276;-65
2023/10/02 05:18:39;;;;;;;7.30;4.53;;;11.10;99.90;;;;;;4952773;28;20259;-65
2023/10/02 05:21:09;;;;;;;9.23;4.80;;;11.10;99.90;;;;;;4952874;28;20255;-66
2023/10/02 05:23:38;;;;;;;9.73;4.63;;;11.10;99.90;;;;;;4952608;28;20732;-65
2023/10/02 05:26:05;;;;;;;6.47;4.47;;;11.10;99.90;;;;;;4952549;28;20211;-66
2023/10/02 05:28:42;;;;;;;6.38;4.57;;;11.00;99.90;;;;;;4952646;28;20204;-65
2023/10/02 05:31:11;;;;;;;10.40;5.40;;;11.00;99.90;;;;;;4952601;28;20227;-65
2023/10/02 05:33:38;;;;;;;9.32;4.80;;;11.00;99.90;;;;;;4952694;28;20200;-65
2023/10/02 05:36:08;;;;;;;6.97;3.80;;;11.00;99.90;;;;;;4952353;28;20508;-65
2023/10/02 05:38:36;;;;;;;7.65;4.50;;;11.00;99.90;;;;;;4952494;28;20701;-65
2023/10/02 05:41:03;;;;;;;7.93;4.28;;;11.00;99.90;;;;;;4952573;28;20282;-65
2023/10/02 05:43:31;;;;;;;7.20;4.68;;;11.00;99.90;;;;;;4952453;28;20228;-65
2023/10/02 05:46:06;;;;;;;8.23;4.75;;;10.90;99.90;;;;;;4952325;28;20220;-65
2023/10/02 05:48:37;;;;;;;8.10;4.50;;;11.00;99.90;;;;;;4952615;28;20208;-66
2023/10/02 05:51:12;;;;;;;9.23;4.93;;;11.00;99.90;;;;;;4952519;28;20228;-65
2023/10/02 05:53:53;;;;;;;7.72;4.75;;;11.00;99.90;;;;;;4952382;28;20231;-65
2023/10/02 05:56:19;;;;;;;10.02;4.57;;;11.00;99.90;;;;;;4952615;28;20630;-65
2023/10/02 05:58:49;;;;;;;9.73;5.35;;;11.00;99.90;;;;;;4952413;28;20215;-65
2023/10/02 06:01:23;;;;;;;4.97;3.60;;;11.00;99.90;;;;;;4952625;28;20233;-65
2023/10/02 06:03:56;;;;;;;6.22;3.97;;;11.00;99.90;;;;;;4952308;28;20216;-65
2023/10/02 06:06:27;;;;;;;7.82;4.55;;;11.00;99.90;;;;;;4952580;28;20219;-64
2023/10/02 06:08:56;;;;;;;9.27;4.70;;;11.00;99.90;;;;;;4952363;28;20308;-65
2023/10/02 06:11:32;;;;;;;7.57;4.72;;;11.00;99.90;;;;;;4952836;28;20320;-65
2023/10/02 06:14:09;;;;;;;6.93;4.53;;;11.00;99.90;;;;;;4952437;28;20280;-65
2023/10/02 06:16:37;;;;;;;7.05;3.90;;;11.10;99.90;;;;;;4952064;28;20297;-65
2023/10/02 06:19:06;;;;;;;7.95;5.28;;;11.10;99.90;;;;;;4952278;28;20310;-65
2023/10/02 06:21:45;;;;;;;8.27;4.65;;;11.20;99.90;;;;;;4953375;28;20236;-65
2023/10/02 06:24:15;;;;;;;7.65;5.20;;;11.20;99.90;;;;;;4955950;28;20210;-65
2023/10/02 06:26:57;;;;;;;8.30;4.53;;;11.30;99.90;;;;;;4955529;28;20208;-65
2023/10/02 06:29:24;;;;;;;6.18;4.40;;;11.30;99.90;;;;;;4956117;28;20275;-65
2023/10/02 06:31:58;;;;;;;8.48;5.15;;;11.30;99.90;;;;;;4955555;28;20228;-64
2023/10/02 06:34:26;;;;;;;10.05;5.50;;;11.40;99.90;;;;;;4955708;28;20211;-65
2023/10/02 06:37:07;;;;;;;7.85;4.47;;;11.50;99.90;;;;;;4955800;28;20676;-65
2023/10/02 06:39:35;;;;;;;6.85;3.92;;;11.50;99.90;;;;;;4955787;28;20218;-65
2023/10/02 06:42:04;;;;;;;6.95;4.65;;;11.60;99.90;;;;;;4955809;28;20228;-65
2023/10/02 06:44:34;;;;;;;7.45;3.90;;;11.70;99.90;;;;;;4955465;28;20304;-65
2023/10/02 06:47:00;;;;;;;7.72;5.82;;;11.70;99.90;;;;;;4955710;28;20692;-65
2023/10/02 06:49:28;;;;;;;7.13;4.18;;;11.80;99.90;;;;;;4955910;28;20205;-65
2023/10/02 06:52:11;;;;;;;6.80;4.80;;;11.90;99.90;;;;;;4948113;28;20315;-65
2023/10/02 06:54:42;;;;;;;7.32;4.13;;;12.10;99.90;;;;;;4955147;28;20216;-65
2023/10/02 06:57:11;;;;;;;7.47;4.53;;;12.30;99.90;;;;;;4955596;28;20740;-65
2023/10/02 06:59:39;;;;;;;9.50;4.97;;;12.40;99.90;;;;;;4955385;28;20685;-65
2023/10/02 07:02:06;;;;;;;7.82;4.22;;;12.60;99.90;;;;;;4955306;28;20844;-65
2023/10/02 07:04:35;;;;;;;10.30;4.90;;;12.80;99.90;;;;;;4954997;28;20208;-65
2023/10/02 07:07:10;;;;;;;7.75;6.40;;;13.00;99.90;;;;;;4955235;28;20468;-65
2023/10/02 07:09:37;;;;;;;11.67;5.50;;;13.20;99.90;;;;;;4955247;28;20652;-65
2023/10/02 07:12:13;;;;;;;8.50;5.73;;;13.40;99.90;;;;;;4955094;28;20908;-66
2023/10/02 07:14:41;;;;;;;9.63;5.30;;;13.60;99.90;;;;;;4954577;28;20652;-66
2023/10/02 07:17:18;;;;;;;8.17;5.30;;;13.90;99.90;;;;;;4955189;28;20474;-65
2023/10/02 07:19:51;;;;;;;9.53;5.60;;;14.10;99.90;;;;;;4954931;28;20464;-65
2023/10/02 07:22:25;;;;;;;9.03;5.00;;;14.40;99.90;;;;;;4955083;28;20501;-65
2023/10/02 07:24:54;;;;;;;7.90;5.17;;;14.60;99.90;;;;;;4953842;28;20464;-65
2023/10/02 07:27:25;;;;;;;11.60;6.17;;;14.80;99.90;;;;;;4955189;28;20549;-66
2023/10/02 07:29:53;;;;;;;6.10;5.03;;;15.10;99.90;;;;;;4954263;29;20553;-65
2023/10/02 07:32:21;;;;;;;11.13;4.90;;;15.40;99.90;;;;;;4954570;28;20945;-65
2023/10/02 07:34:50;;;;;;;7.33;5.20;;;15.60;99.90;;;;;;4954223;28;20512;-65
2023/10/02 07:37:21;;;;;;;6.63;4.83;;;15.80;99.90;;;;;;4954928;28;20958;-65
2023/10/02 07:39:56;;;;;;;7.87;5.00;;;16.10;99.90;;;;;;4954684;28;20469;-65
2023/10/02 07:42:28;;;;;;;12.43;6.10;;;16.40;99.90;;;;;;4954861;28;20564;-65
2023/10/02 07:44:56;;;;;;;10.33;5.40;;;16.70;99.90;;;;;;4953656;28;20473;-66
2023/10/02 07:47:23;;;;;;;12.83;5.30;;;17.00;99.90;;;;;;4954797;28;20458;-65
2023/10/02 07:49:52;;;;;;;6.50;4.97;;;17.30;99.90;;;;;;4954330;28;20459;-65
2023/10/02 07:52:34;;;;;;;9.07;5.50;;;17.50;99.90;;;;;;4954759;28;20479;-66
2023/10/02 07:55:02;;;;;;;8.60;4.83;;;17.70;99.90;;;;;;4947576;29;20467;-66
2023/10/02 07:57:32;;;;;;;9.80;5.00;;;17.90;99.90;;;;;;4954495;28;20471;-65
2023/10/02 08:00:01;;;;;;;10.03;5.67;;;18.20;99.90;;;;;;4954192;28;20858;-66
2023/10/02 08:02:33;;;;;;;8.33;5.23;;;18.40;99.90;;;;;;4954408;28;20871;-66
2023/10/02 08:05:03;;;;;;;10.00;5.27;;;18.70;99.90;;;;;;4953649;28;21044;-66
2023/10/02 08:07:30;;;;;;;9.50;4.60;;;18.90;99.90;;;;;;4954357;28;20520;-66
2023/10/02 08:09:57;;;;;;;10.40;5.53;;;19.10;99.90;;;;;;4954041;28;20970;-65
2023/10/02 08:12:33;;;;;;;9.33;5.70;;;19.20;99.90;;;;;;4954205;28;20544;-66
2023/10/02 08:15:04;;;;;;;11.10;6.10;;;19.40;99.90;;;;;;4953374;28;21017;-66
2023/10/02 08:20:20;;;;;;;12.40;6.10;;;19.80;99.90;;;;;;4953886;28;20523;-65
2023/10/02 08:22:48;;;;;;;11.03;5.67;;;20.00;99.90;;;;;;4953706;28;20884;-66
2023/10/02 08:25:16;;;;;;;11.83;6.67;;;20.10;99.90;;;;;;4953685;28;20561;-66
2023/10/02 08:27:46;;;;;;;10.50;6.37;;;20.30;99.90;;;;;;4953678;28;20522;-66
2023/10/02 08:30:28;;;;;;;11.30;6.40;;;20.40;99.90;;;;;;4953812;28;20530;-66
2023/10/02 08:32:55;;;;;;;11.03;5.37;;;20.60;99.90;;;;;;4952438;28;20994;-66
2023/10/02 08:35:24;;;;;;;13.40;5.53;;;20.90;99.90;;;;;;4953371;28;20467;-66
2023/10/02 08:37:54;;;;;;;13.40;5.93;;;21.00;99.90;;;;;;4952326;28;20546;-66
2023/10/02 08:40:21;;;;;;;10.33;5.37;;;21.20;99.90;;;;;;4953836;28;20552;-65
2023/10/02 08:42:52;;;;;;;11.23;6.33;;;21.30;99.90;;;;;;4953223;28;20486;-65
2023/10/02 08:45:20;;;;;;;13.67;6.70;;;21.50;99.90;;;;;;4952684;28;20481;-66
2023/10/02 08:47:48;;;;;;;13.17;5.97;;;21.70;99.90;;;;;;4953229;28;20472;-66
2023/10/02 08:50:15;;;;;;;10.83;5.70;;;21.90;99.90;;;;;;4953532;28;20467;-66
2023/10/02 08:52:47;;;;;;;9.80;6.20;;;22.00;99.90;;;;;;4953231;28;20514;-66
2023/10/02 08:55:33;;;;;;;9.30;5.50;;;22.00;99.90;;;;;;4953008;28;20472;-66
2023/10/02 08:58:15;;;;;;;10.77;5.90;;;22.00;99.90;;;;;;4952444;29;20468;-67
2023/10/02 09:01:05;;;;;;;9.80;5.80;;;22.00;99.90;;;;;;4953288;28;20546;-66
2023/10/02 09:03:41;;;;;;;7.50;5.17;;;22.10;99.90;;;;;;4953179;28;20492;-66
2023/10/02 09:11:34;;;;;;;11.63;5.70;;;22.50;99.90;;;;;;4952859;28;20570;-66
2023/10/02 09:14:15;;;;;;;9.33;5.93;;;22.60;99.90;;;;;;4952815;28;20548;-65
2023/10/02 09:16:45;;;;;;;9.57;6.30;;;22.70;99.90;;;;;;4952767;28;20470;-66
2023/10/02 09:21:53;;;;;;;8.20;5.27;;;22.80;99.90;;;;;;4950505;28;20476;-65
2023/10/02 09:24:20;;;;;;;9.57;6.23;;;23.00;99.90;;;;;;4953064;28;20514;-66
2023/10/02 09:26:47;;;;;;;10.13;5.60;;;23.10;99.90;;;;;;4952547;28;20490;-66
2023/10/02 09:29:16;;;;;;;12.70;6.17;;;23.30;99.90;;;;;;4953019;28;20464;-66
2023/10/02 09:31:43;;;;;;;9.60;5.33;;;23.50;99.90;;;;;;4952674;28;20579;-65
2023/10/02 09:34:16;;;;;;;10.43;6.23;;;23.70;99.90;;;;;;4952858;28;20535;-65
2023/10/02 09:36:52;;;;;;;10.00;6.33;;;23.90;99.90;;;;;;4952544;28;20945;-65
2023/10/02 09:39:36;;;;;;;10.50;6.23;;;23.90;99.90;;;;;;4948889;28;20475;-65
2023/10/02 09:42:07;;;;;;;12.10;5.83;;;23.80;99.90;;;;;;4951675;28;21000;-65
2023/10/02 09:44:40;;;;;;;8.33;5.57;;;23.90;99.90;;;;;;4952318;28;20523;-65
2023/10/02 09:47:07;;;;;;;10.60;6.17;;;23.90;99.90;;;;;;4952550;28;20468;-65
2023/10/02 09:49:43;;;;;;;13.20;6.40;;;24.10;99.90;;;;;;4952920;28;20468;-65
2023/10/02 09:52:15;;;;;;;10.10;5.50;;;24.20;99.90;;;;;;4952415;28;20517;-64
2023/10/02 09:55:00;;;;;;;10.73;5.80;;;24.30;99.90;;;;;;4952465;28;20476;-65
2023/10/02 09:57:32;;;;;;;11.57;6.67;;;24.40;99.90;;;;;;4956658;28;20478;-65
2023/10/02 10:00:34;;;;;;;11.37;6.13;;;24.50;99.90;;;;;;4956382;28;20472;-65
2023/10/02 10:03:30;;;;;;;10.27;6.10;;;24.60;99.90;;;;;;4953747;28;20487;-65
2023/10/02 10:06:19;;;;;;;12.53;6.70;;;24.80;99.90;;;;;;4953874;28;20471;-65
2023/10/02 10:09:25;;;;;;;11.10;5.93;;;25.00;99.90;;;;;;4956439;28;20482;-65
2023/10/02 10:14:36;;;;;;;9.67;5.60;;;25.40;99.90;;;;;;4955758;29;20478;-65
2023/10/02 10:17:12;;;;;;;14.63;7.70;;;25.60;99.90;;;;;;4956029;28;20491;-65
2023/10/02 10:19:41;;;;;;;11.03;5.70;;;25.80;99.90;;;;;;4956248;28;20872;-65
2023/10/02 10:22:38;;;;;;;9.83;6.20;;;25.90;99.90;;;;;;4955810;28;20571;-66
2023/10/02 10:25:53;;;;;;;12.10;6.07;;;26.20;99.90;;;;;;4954342;28;20535;-66
2023/10/02 10:28:28;;;;;;;10.47;5.63;;;26.30;99.90;;;;;;4942849;28;20467;-65
2023/10/02 10:31:01;;;;;;;10.10;6.43;;;26.50;99.90;;;;;;4953426;28;20495;-65
2023/10/02 10:33:40;;;;;;;13.67;6.57;;;26.60;99.90;;;;;;4956125;28;20827;-65
2023/10/02 10:36:39;;;;;;;14.57;6.57;;;26.80;99.90;;;;;;4955508;28;20479;-65
2023/10/02 10:40:18;;;;;;;9.47;6.17;;;26.80;99.90;;;;;;4954488;28;20906;-65
2023/10/02 10:42:59;;;;;;;12.60;6.33;;;27.00;99.90;;;;;;4954938;29;20471;-65
2023/10/02 10:45:29;;;;;;;13.27;7.70;;;27.20;99.90;;;;;;4955269;28;20470;-65
2023/10/02 10:47:56;;;;;;;15.57;7.77;;;27.20;99.90;;;;;;4952943;28;20468;-65
2023/10/02 10:50:29;;;;;;;16.10;8.13;;;27.20;99.90;;;;;;4955791;28;20464;-65
2023/10/02 10:53:26;;;;;;;14.10;7.20;;;27.30;99.90;;;;;;4952605;28;20843;-65
2023/10/02 10:55:54;;;;;;;11.87;6.50;;;27.60;99.90;;;;;;4951972;28;20999;-65
2023/10/02 10:58:33;;;;;;;12.10;7.53;;;27.70;99.90;;;;;;4955571;28;20464;-65
2023/10/02 11:01:02;;;;;;;11.50;6.73;;;27.70;99.90;;;;;;4953261;28;20546;-65
2023/10/02 11:03:30;;;;;;;12.17;6.90;;;27.90;99.90;;;;;;4955331;28;20488;-65
2023/10/02 11:06:02;;;;;;;14.43;8.03;;;28.00;99.90;;;;;;4954838;28;20468;-65
2023/10/02 11:08:30;;;;;;;14.50;7.80;;;28.10;99.90;;;;;;4954731;28;20472;-65
2023/10/02 11:11:18;;;;;;;20.40;9.70;;;28.20;99.90;;;;;;4955144;28;20487;-65
2023/10/02 11:14:01;;;;;;;12.20;7.10;;;28.20;99.90;;;;;;4955205;28;20518;-66
2023/10/02 11:16:32;;;;;;;12.83;7.90;;;28.30;99.90;;;;;;4955189;28;20468;-66
2023/10/02 11:19:13;;;;;;;15.67;8.13;;;28.30;99.90;;;;;;4955033;28;20472;-65
2023/10/02 11:21:47;;;;;;;12.80;7.20;;;28.40;99.90;;;;;;4955123;28;20546;-65
2023/10/02 11:24:22;;;;;;;14.40;8.27;;;28.40;99.90;;;;;;4954753;28;20493;-65
2023/10/02 11:26:53;;;;;;;12.07;7.60;;;28.50;99.90;;;;;;4955036;28;20470;-65
2023/10/02 11:29:22;;;;;;;14.50;7.63;;;28.60;99.90;;;;;;4955023;28;20550;-65
2023/10/02 11:32:19;;;;;;;15.33;8.10;;;28.60;99.90;;;;;;4954771;28;20488;-66
2023/10/02 11:34:46;;;;;;;15.03;7.70;;;28.70;99.90;;;;;;4954621;28;20471;-65
2023/10/02 11:37:14;;;;;;;15.20;8.13;;;28.70;99.90;;;;;;4955000;28;20465;-65
2023/10/02 11:39:41;;;;;;;19.53;10.33;;;28.70;98.40;;;;;;4954872;28;20519;-65
2023/10/02 11:42:07;;;;;;;17.20;9.70;;;28.40;96.90;;;;;;4954403;28;20510;-65
2023/10/02 11:44:39;;;;;;;17.50;9.63;;;28.40;99.90;;;;;;4954272;28;20494;-66
2023/10/02 11:47:09;;;;;;;14.03;8.53;;;28.40;99.90;;;;;;4954563;28;20953;-65
2023/10/02 11:49:36;;;;;;;17.83;9.70;;;28.50;99.90;;;;;;4954921;28;20507;-66
2023/10/02 11:52:03;;;;;;;17.20;8.87;;;28.50;99.90;;;;;;4954582;28;20495;-65
2023/10/02 11:54:32;;;;;;;17.57;9.47;;;28.60;99.10;;;;;;4954301;28;20920;-66
2023/10/02 11:56:58;;;;;;;19.07;8.90;;;28.70;99.90;;;;;;4954278;28;20905;-65
2023/10/02 11:59:25;;;;;;;14.30;8.37;;;28.70;99.90;;;;;;4954465;28;20468;-66
2023/10/02 12:01:57;;;;;;;14.60;7.90;;;28.80;99.90;;;;;;4950503;28;20483;-65
2023/10/02 12:04:26;;;;;;;17.30;9.73;;;28.90;99.90;;;;;;4954334;28;20491;-65
2023/10/02 12:06:54;;;;;;;15.60;8.00;;;28.90;99.80;;;;;;4950613;28;20471;-65
2023/10/02 12:09:23;;;;;;;17.43;8.50;;;29.00;99.90;;;;;;4954242;28;20848;-65
2023/10/02 12:11:50;;;;;;;19.40;10.00;;;29.10;99.90;;;;;;4954277;28;20484;-65
2023/10/02 12:14:17;;;;;;;18.43;8.43;;;29.10;99.90;;;;;;4953796;28;20459;-65
2023/10/02 12:16:43;;;;;;;15.93;8.83;;;29.20;99.90;;;;;;4953629;28;20461;-65
2023/10/02 12:19:15;;;;;;;14.40;8.87;;;29.20;99.90;;;;;;4953129;28;20452;-65
2023/10/02 12:21:42;;;;;;;13.60;8.30;;;29.30;99.90;;;;;;4954302;28;20992;-65
2023/10/02 12:24:08;;;;;;;15.00;8.80;;;29.30;99.90;;;;;;4953721;28;20488;-65
2023/10/02 12:26:35;;;;;;;17.07;9.50;;;29.40;99.90;;;;;;4953597;28;20499;-65
2023/10/02 12:29:03;;;;;;;15.20;9.47;;;29.50;99.90;;;;;;4953558;28;20468;-65
2023/10/02 12:31:31;;;;;;;16.67;8.77;;;29.60;99.60;;;;;;4954069;28;20937;-65
2023/10/02 12:33:58;;;;;;;16.10;9.50;;;29.60;99.50;;;;;;4953804;28;20951;-65
2023/10/02 12:36:26;;;;;;;17.30;9.70;;;29.70;99.50;;;;;;4953260;28;20475;-65
2023/10/02 12:38:54;;;;;;;13.60;8.10;;;29.80;97.80;;;;;;4949463;29;21015;-65
2023/10/02 12:41:21;;;;;;;18.13;10.33;;;29.70;98.70;;;;;;4953317;28;20480;-65
2023/10/02 12:43:55;;;;;;;17.07;9.40;;;29.70;99.70;;;;;;4953393;28;20460;-65
2023/10/02 12:46:23;;;;;;;16.00;10.13;;;29.80;97.50;;;;;;4953085;28;20568;-65
2023/10/02 12:48:50;;;;;;;16.73;9.33;;;29.80;97.90;;;;;;4953560;28;20464;-65
2023/10/02 12:51:18;;;;;;;15.67;8.93;;;29.90;99.60;;;;;;4953243;28;20991;-66
2023/10/02 12:53:47;;;;;;;16.70;8.97;;;29.80;98.80;;;;;;4953445;28;20523;-65
2023/10/02 12:56:18;;;;;;;20.10;10.60;;;29.80;98.80;;;;;;4952871;28;20460;-65
2023/10/02 12:58:48;;;;;;;14.20;8.97;;;29.70;98.60;;;;;;4953274;28;20464;-65
2023/10/02 13:01:15;;;;;;;16.50;9.10;;;29.80;99.40;;;;;;4953202;28;20488;-65
2023/10/02 13:03:43;;;;;;;16.80;9.53;;;29.80;95.40;;;;;;4953432;28;20457;-65
2023/10/02 13:06:12;;;;;;;15.63;9.27;;;29.80;96.90;;;;;;4952734;28;20527;-65
2023/10/02 13:08:40;;;;;;;16.77;8.70;;;29.80;97.90;;;;;;4953308;28;20472;-65
2023/10/02 13:11:13;;;;;;;16.20;9.47;;;29.80;98.50;;;;;;4953103;28;20492;-65
2023/10/02 13:13:43;;;;;;;15.77;8.27;;;29.80;98.70;;;;;;4953525;28;20469;-65
2023/10/02 13:16:11;;;;;;;15.37;8.90;;;29.80;98.80;;;;;;4952967;28;20471;-65
2023/10/02 13:18:38;;;;;;;15.27;9.13;;;29.80;99.00;;;;;;4953303;28;20460;-66
2023/10/02 13:21:08;;;;;;;17.90;9.40;;;29.80;99.50;;;;;;4952929;28;20491;-65
2023/10/02 13:23:35;;;;;;;17.13;9.40;;;29.80;98.70;;;;;;4953060;28;20840;-65
2023/10/02 13:26:04;;;;;;;16.30;9.40;;;29.70;96.60;;;;;;4952661;28;20857;-66
2023/10/02 13:28:34;;;;;;;20.50;8.60;;;29.60;97.00;;;;;;4952806;28;20468;-65
2023/10/02 13:31:08;;;;;;;14.17;8.77;;;29.60;97.80;;;;;;4952599;28;20524;-65
2023/10/02 13:33:36;;;;;;;17.53;9.50;;;29.60;99.00;;;;;;4952827;28;20551;-66
2023/10/02 13:36:07;;;;;;;16.30;9.47;;;29.60;99.80;;;;;;4952792;28;20942;-66
2023/10/02 13:38:35;;;;;;;14.50;8.53;;;29.60;99.90;;;;;;4952965;28;21044;-65
2023/10/02 13:41:09;;;;;;;17.60;9.40;;;29.50;98.70;;;;;;4952926;28;20468;-65
2023/10/02 13:43:41;;;;;;;15.20;8.93;;;29.50;97.20;;;;;;4952685;28;20472;-65
2023/10/02 13:46:09;;;;;;;14.60;7.70;;;29.50;98.50;;;;;;4952610;28;20914;-65
2023/10/02 13:48:37;;;;;;;14.70;7.73;;;29.50;98.00;;;;;;4952762;28;20464;-65
2023/10/02 13:51:04;;;;;;;19.90;9.63;;;29.50;98.00;;;;;;4952805;28;20559;-65
2023/10/02 13:53:32;;;;;;;17.23;9.40;;;29.50;98.80;;;;;;4952442;28;20471;-65
2023/10/02 13:56:03;;;;;;;18.50;8.77;;;29.50;99.00;;;;;;4952449;28;20468;-65
2023/10/02 13:58:30;;;;;;;15.80;9.50;;;29.50;99.10;;;;;;4952634;28;20472;-65
2023/10/02 14:01:05;;;;;;;15.43;8.50;;;29.50;98.80;;;;;;4952655;28;20499;-65
2023/10/02 14:03:32;;;;;;;14.40;7.93;;;29.50;99.10;;;;;;4952223;28;20467;-66
2023/10/02 14:05:59;;;;;;;17.13;9.27;;;29.50;99.10;;;;;;4952177;28;21004;-65
2023/10/02 14:08:27;;;;;;;16.00;8.63;;;29.60;99.30;;;;;;4952230;28;20543;-65
2023/10/02 14:10:54;;;;;;;16.00;8.50;;;29.50;96.50;;;;;;4952618;28;20902;-65
2023/10/02 14:13:20;;;;;;;12.40;8.43;;;29.50;98.20;;;;;;4952142;28;20852;-65
2023/10/02 14:15:48;;;;;;;18.00;9.53;;;29.50;98.70;;;;;;4952152;28;20462;-65
2023/10/02 14:18:17;;;;;;;14.97;9.07;;;29.50;98.40;;;;;;4952388;28;20464;-65
2023/10/02 14:20:45;;;;;;;16.27;9.27;;;29.50;98.80;;;;;;4952435;28;20488;-64
2023/10/02 14:23:11;;;;;;;16.33;9.43;;;29.40;99.80;;;;;;4952255;28;20942;-65
2023/10/02 14:25:40;;;;;;;14.20;8.10;;;29.30;99.90;;;;;;4952147;28;20492;-65
2023/10/02 14:28:10;;;;;;;16.33;9.03;;;29.20;99.90;;;;;;4952456;28;20503;-65
2023/10/02 14:30:39;;;;;;;17.43;10.10;;;29.10;99.10;;;;;;4952192;28;20488;-65
2023/10/02 14:33:07;;;;;;;14.60;8.73;;;29.00;99.40;;;;;;4952299;28;20479;-65
2023/10/02 14:35:36;;;;;;;12.93;8.40;;;29.00;99.90;;;;;;4951922;28;20475;-66
2023/10/02 14:38:04;;;;;;;14.50;7.93;;;28.90;99.90;;;;;;4952347;28;20796;-66
2023/10/02 14:40:32;;;;;;;11.80;8.13;;;28.90;99.90;;;;;;4951919;28;20464;-65
2023/10/02 14:43:00;;;;;;;16.23;8.83;;;28.80;99.90;;;;;;4954139;28;20467;-65
2023/10/02 14:45:27;;;;;;;17.30;9.30;;;28.70;99.90;;;;;;4955146;28;20488;-65
2023/10/02 14:47:55;;;;;;;17.00;9.07;;;28.70;99.90;;;;;;4955851;28;20470;-65
2023/10/02 14:50:24;;;;;;;17.33;9.17;;;28.70;99.90;;;;;;4955467;28;20467;-65
2023/10/02 14:52:53;;;;;;;15.70;8.40;;;28.60;99.90;;;;;;4955935;28;20523;-65
2023/10/02 14:55:22;;;;;;;15.20;9.53;;;28.50;99.90;;;;;;4955101;28;20511;-65
2023/10/02 14:57:50;;;;;;;15.57;8.93;;;28.40;99.90;;;;;;4955659;28;20460;-66
2023/10/02 15:00:21;;;;;;;15.07;8.30;;;28.20;99.90;;;;;;4955551;28;20474;-65
2023/10/02 15:02:48;;;;;;;16.83;9.47;;;28.20;99.90;;;;;;4955842;28;20468;-65
2023/10/02 15:05:15;;;;;;;13.17;9.10;;;28.20;99.90;;;;;;4955055;28;20488;-65
2023/10/02 15:07:44;;;;;;;13.90;8.13;;;28.20;99.90;;;;;;4955667;28;20475;-65
2023/10/02 15:10:12;;;;;;;14.00;8.00;;;28.10;99.90;;;;;;4955543;28;20464;-65
2023/10/02 15:12:40;;;;;;;15.53;8.10;;;28.00;99.90;;;;;;4955053;28;20464;-65
2023/10/02 15:15:13;;;;;;;16.37;9.00;;;28.00;99.90;;;;;;4954942;28;20518;-65
2023/10/02 15:17:41;;;;;;;16.80;9.40;;;28.00;99.90;;;;;;4955097;28;20491;-66
2023/10/02 15:20:13;;;;;;;17.37;9.20;;;27.90;99.90;;;;;;4955739;28;20464;-65
2023/10/02 15:22:39;;;;;;;17.13;9.43;;;27.80;99.90;;;;;;4954860;28;20487;-65
2023/10/02 15:25:07;;;;;;;15.20;8.70;;;27.70;99.90;;;;;;4954847;28;20488;-65
2023/10/02 15:27:35;;;;;;;17.00;9.03;;;27.60;99.90;;;;;;4954755;28;20464;-65
2023/10/02 15:30:03;;;;;;;14.60;8.60;;;27.50;99.90;;;;;;4955217;28;20477;-65
2023/10/02 15:32:30;;;;;;;17.27;8.40;;;27.50;99.90;;;;;;4954587;28;20571;-65
2023/10/02 15:34:57;;;;;;;21.70;10.93;;;27.40;99.90;;;;;;4954443;28;20937;-65
2023/10/02 15:37:24;;;;;;;20.13;9.93;;;27.30;99.90;;;;;;4954765;28;20474;-65
2023/10/02 15:39:51;;;;;;;18.97;9.60;;;27.20;99.90;;;;;;4955122;28;20471;-65
2023/10/02 15:42:18;;;;;;;21.40;10.70;;;27.10;99.90;;;;;;4955165;28;20491;-65
2023/10/02 15:44:48;;;;;;;16.80;8.67;;;26.90;99.90;;;;;;4953136;28;20468;-65
2023/10/02 15:47:16;;;;;;;14.77;7.83;;;26.80;99.90;;;;;;4954930;28;20464;-65
2023/10/02 15:49:45;;;;;;;14.17;8.50;;;26.50;99.90;;;;;;4954579;28;20468;-65
2023/10/02 15:52:12;;;;;;;14.90;9.10;;;26.40;99.90;;;;;;4954690;28;20514;-65
2023/10/02 15:54:43;;;;;;;13.43;8.80;;;26.10;99.90;;;;;;4953475;28;20495;-64
2023/10/02 15:57:10;;;;;;;15.97;9.73;;;25.90;99.90;;;;;;4954803;28;21078;-65
2023/10/02 15:59:37;;;;;;;13.97;7.57;;;25.70;99.90;;;;;;4954161;28;20460;-65
2023/10/02 16:02:05;;;;;;;19.10;9.27;;;25.40;99.90;;;;;;4954506;28;20520;-66
2023/10/02 16:04:32;;;;;;;16.97;9.23;;;25.20;99.90;;;;;;4953598;28;20499;-65
2023/10/02 16:06:59;;;;;;;18.47;8.90;;;25.00;99.90;;;;;;4954569;28;20491;-65
2023/10/02 16:09:25;;;;;;;17.10;8.40;;;24.70;99.90;;;;;;4954125;28;20464;-65
2023/10/02 16:11:52;;;;;;;14.33;7.57;;;24.40;99.90;;;;;;4947398;28;20484;-65
2023/10/02 16:14:19;;;;;;;17.33;9.47;;;24.20;99.90;;;;;;4954376;28;20464;-65
2023/10/02 16:16:46;;;;;;;13.07;8.30;;;23.90;99.90;;;;;;4953568;28;20460;-65
2023/10/02 16:19:14;;;;;;;17.00;9.37;;;23.70;99.90;;;;;;4954279;28;20463;-65
2023/10/02 16:21:41;;;;;;;15.20;7.60;;;23.50;99.90;;;;;;4953765;28;20484;-65
2023/10/02 16:24:10;;;;;;;20.30;9.63;;;23.30;99.90;;;;;;4954002;28;20460;-65
2023/10/02 16:26:36;;;;;;;15.60;8.63;;;23.10;99.90;;;;;;4953493;28;20690;-64
2023/10/02 16:29:03;;;;;;;19.60;9.13;;;22.90;99.90;;;;;;4953902;28;20472;-66
2023/10/02 16:31:30;;;;;;;17.90;8.60;;;22.70;99.90;;;;;;4953498;28;20487;-65
2023/10/02 16:33:57;;;;;;;14.60;8.37;;;22.50;99.90;;;;;;4953952;28;20847;-65
2023/10/02 16:36:25;;;;;;;22.20;9.47;;;22.30;99.90;;;;;;4953479;28;20464;-65
2023/10/02 16:38:53;;;;;;;14.20;7.60;;;22.20;99.90;;;;;;4946636;29;20496;-65
2023/10/02 16:41:20;;;;;;;13.80;7.87;;;22.00;99.90;;;;;;4953902;28;20855;-65
2023/10/02 16:43:47;;;;;;;17.63;9.37;;;21.90;99.90;;;;;;4953314;28;20472;-65
2023/10/02 16:46:17;;;;;;;16.10;8.60;;;21.70;99.90;;;;;;4953378;28;20877;-65
2023/10/02 16:48:44;;;;;;;16.50;7.93;;;21.50;99.90;;;;;;4949097;28;20527;-65
2023/10/02 16:51:12;;;;;;;18.60;9.33;;;21.40;99.90;;;;;;4950552;28;20495;-65